Time;durP1;ratioP1;P1;durP2;ratioP2;P2;SDS_P1;SDS_P2;PMS_P1;PMS_P2;Temp;Humidity;BMP_temperature;BMP_pressure;BME280_temperature;BME280_humidity;BME280_pressure;Samples;Min_cycle;Max_cycle;Signal;HPM_P1;HPM_P2
2021/03/13 00:00:24;;;;;;;28.15;5.05;;;5.70;99.90;;;;;;5084718;28;20035;-67
2021/03/13 00:02:51;;;;;;;31.45;5.28;;;5.70;99.90;;;;;;5089570;28;20040;-67
2021/03/13 00:05:22;;;;;;;26.05;6.10;;;5.70;99.90;;;;;;5086486;28;20044;-67
2021/03/13 00:07:48;;;;;;;28.17;5.28;;;5.70;99.90;;;;;;5065835;28;20517;-67
2021/03/13 00:10:14;;;;;;;35.38;6.10;;;5.60;99.90;;;;;;5086886;28;20040;-67
2021/03/13 00:12:40;;;;;;;23.30;5.53;;;5.60;99.90;;;;;;5086106;28;20059;-67
2021/03/13 00:15:06;;;;;;;25.33;5.60;;;5.60;99.90;;;;;;5090272;28;20035;-67
2021/03/13 00:17:32;;;;;;;25.42;5.25;;;5.60;99.90;;;;;;5086211;28;20032;-67
2021/03/13 00:19:58;;;;;;;27.10;4.93;;;5.50;99.90;;;;;;5087837;28;20036;-67
2021/03/13 00:22:24;;;;;;;22.58;4.97;;;5.60;99.90;;;;;;5087698;28;20493;-67
2021/03/13 00:24:50;;;;;;;32.40;5.55;;;5.50;99.90;;;;;;5087259;28;20117;-67
2021/03/13 00:27:16;;;;;;;30.17;6.35;;;5.50;99.90;;;;;;5086886;28;20059;-67
2021/03/13 00:29:42;;;;;;;24.20;5.88;;;5.50;99.90;;;;;;5087619;28;20040;-67
2021/03/13 00:32:08;;;;;;;23.52;4.93;;;5.50;99.90;;;;;;5086193;28;20491;-67
2021/03/13 00:34:33;;;;;;;21.77;4.25;;;5.50;99.90;;;;;;5071350;28;20038;-67
2021/03/13 00:36:59;;;;;;;25.60;5.07;;;5.50;99.90;;;;;;5086380;28;20043;-67
2021/03/13 00:39:25;;;;;;;22.00;4.10;;;5.50;99.90;;;;;;5088146;28;20509;-67
2021/03/13 00:41:50;;;;;;;19.75;3.92;;;5.50;99.90;;;;;;5089758;28;20293;-67
2021/03/13 00:44:17;;;;;;;27.55;4.70;;;5.80;99.90;;;;;;5086376;28;20105;-67
2021/03/13 00:46:43;;;;;;;22.45;4.53;;;5.50;99.90;;;;;;5092620;28;20036;-67
2021/03/13 00:49:10;;;;;;;23.90;4.30;;;5.50;99.90;;;;;;5087936;28;20036;-67
2021/03/13 00:51:35;;;;;;;19.13;4.50;;;5.50;99.90;;;;;;5090727;28;20437;-67
2021/03/13 00:54:02;;;;;;;21.20;4.50;;;5.50;99.90;;;;;;5091135;28;20035;-67
2021/03/13 00:56:28;;;;;;;25.60;5.32;;;5.60;99.90;;;;;;5092166;28;20063;-67
2021/03/13 00:58:54;;;;;;;21.65;4.15;;;5.60;99.90;;;;;;5087455;28;20074;-67
2021/03/13 01:01:19;;;;;;;24.98;4.78;;;5.60;99.90;;;;;;5090392;28;20589;-67
2021/03/13 01:03:45;;;;;;;25.08;5.25;;;5.60;99.90;;;;;;5093177;28;20123;-67
2021/03/13 01:06:11;;;;;;;26.13;6.10;;;5.60;99.90;;;;;;5089738;28;20380;-67
2021/03/13 01:08:36;;;;;;;30.83;6.32;;;5.60;99.90;;;;;;5092897;28;20039;-67
2021/03/13 01:11:02;;;;;;;22.58;5.22;;;5.60;99.90;;;;;;5087635;28;20123;-67
2021/03/13 01:13:28;;;;;;;26.75;5.93;;;5.60;99.90;;;;;;5091807;28;20477;-67
2021/03/13 01:15:54;;;;;;;29.13;6.63;;;5.70;99.90;;;;;;5090335;28;20032;-67
2021/03/13 01:18:19;;;;;;;20.35;5.90;;;5.70;99.90;;;;;;5088807;28;20028;-67
2021/03/13 01:20:47;;;;;;;26.58;6.82;;;5.80;99.90;;;;;;5092578;28;20036;-67
2021/03/13 01:23:13;;;;;;;22.80;6.07;;;5.70;99.90;;;;;;5089550;28;20044;-67
2021/03/13 01:25:39;;;;;;;21.83;5.28;;;5.80;99.90;;;;;;5091207;28;20109;-67
2021/03/13 01:28:05;;;;;;;24.58;5.55;;;5.80;99.90;;;;;;5088448;28;20071;-67
2021/03/13 01:30:31;;;;;;;24.65;7.05;;;5.80;99.90;;;;;;5091001;28;20055;-67
2021/03/13 01:32:56;;;;;;;27.55;6.90;;;5.80;99.90;;;;;;5092247;28;20067;-67
2021/03/13 01:35:24;;;;;;;24.15;6.45;;;5.90;99.90;;;;;;5089087;28;20056;-67
2021/03/13 01:37:51;;;;;;;18.77;5.80;;;5.90;99.90;;;;;;5093855;28;20036;-67
2021/03/13 01:40:17;;;;;;;27.67;5.78;;;5.90;99.90;;;;;;5090074;28;20040;-67
2021/03/13 01:42:46;;;;;;;21.42;6.13;;;5.90;99.90;;;;;;5088749;28;20486;-67
2021/03/13 01:45:14;;;;;;;22.85;5.82;;;6.00;99.90;;;;;;5090437;28;20048;-67
2021/03/13 01:47:40;;;;;;;20.70;5.50;;;6.30;99.90;;;;;;5088945;28;20029;-67
2021/03/13 01:50:09;;;;;;;24.27;5.60;;;6.00;99.90;;;;;;5092823;28;20047;-67
2021/03/13 01:52:35;;;;;;;23.65;5.72;;;5.90;99.90;;;;;;5089590;28;20028;-67
2021/03/13 01:55:03;;;;;;;20.38;5.63;;;6.00;99.90;;;;;;5090141;28;20036;-67
2021/03/13 01:57:29;;;;;;;23.33;5.53;;;6.00;99.90;;;;;;5088159;28;20036;-67
2021/03/13 01:59:55;;;;;;;20.23;5.25;;;6.00;99.90;;;;;;5090718;28;20048;-67
2021/03/13 02:02:21;;;;;;;21.73;5.15;;;6.00;99.90;;;;;;5089136;28;20079;-67
2021/03/13 02:04:47;;;;;;;18.23;4.55;;;6.10;99.90;;;;;;5088286;28;20039;-67
2021/03/13 02:07:28;;;;;;;27.75;5.15;;;6.10;99.90;;;;;;5088397;28;20040;-67
2021/03/13 02:10:02;;;;;;;23.35;6.53;;;6.10;99.90;;;;;;5089780;28;20032;-67
2021/03/13 02:12:58;;;;;;;27.25;6.38;;;6.20;99.90;;;;;;5091173;28;20039;-67
2021/03/13 02:15:31;;;;;;;20.58;6.32;;;6.20;99.90;;;;;;5088605;28;20433;-67
2021/03/13 02:18:21;;;;;;;25.60;4.97;;;6.20;99.90;;;;;;5088633;28;20032;-68
2021/03/13 02:21:09;;;;;;;21.38;4.78;;;6.20;99.90;;;;;;5087323;28;20070;-67
2021/03/13 02:23:53;;;;;;;24.38;5.07;;;6.20;99.90;;;;;;5089227;28;20047;-67
2021/03/13 02:26:56;;;;;;;23.45;4.85;;;6.20;99.90;;;;;;5086040;28;20047;-67
2021/03/13 02:29:35;;;;;;;22.23;5.18;;;6.30;99.90;;;;;;5085527;28;20410;-67
2021/03/13 02:32:09;;;;;;;29.45;6.93;;;6.30;99.90;;;;;;5087067;28;20044;-67
2021/03/13 02:34:37;;;;;;;21.17;6.15;;;6.50;99.90;;;;;;5086256;28;20122;-67
2021/03/13 02:37:13;;;;;;;32.35;6.18;;;6.30;99.90;;;;;;5086248;28;20035;-67
2021/03/13 02:39:42;;;;;;;19.58;4.78;;;6.30;99.90;;;;;;5087283;28;20032;-67
2021/03/13 02:42:09;;;;;;;24.55;5.03;;;6.30;99.90;;;;;;5070484;28;20035;-67
2021/03/13 02:44:36;;;;;;;21.48;4.82;;;6.30;99.90;;;;;;5083816;28;20036;-67
2021/03/13 02:47:05;;;;;;;22.48;4.57;;;6.30;99.90;;;;;;5088329;28;20040;-67
2021/03/13 02:49:33;;;;;;;20.67;5.22;;;6.30;99.90;;;;;;5089438;28;20126;-67
2021/03/13 02:52:00;;;;;;;13.52;3.75;;;6.40;99.90;;;;;;5084146;28;20060;-67
2021/03/13 02:54:26;;;;;;;23.10;4.60;;;6.30;99.90;;;;;;5069489;28;20111;-67
2021/03/13 02:56:55;;;;;;;21.73;5.38;;;6.40;99.90;;;;;;5090455;28;20047;-67
2021/03/13 02:59:22;;;;;;;16.95;4.28;;;6.40;99.90;;;;;;5090505;28;20036;-67
2021/03/13 03:01:48;;;;;;;18.80;4.15;;;6.30;99.90;;;;;;5088609;28;20032;-68
2021/03/13 03:04:16;;;;;;;18.02;4.47;;;6.30;99.90;;;;;;5087328;28;21004;-67
2021/03/13 03:06:47;;;;;;;14.85;4.18;;;6.30;99.90;;;;;;5090267;28;20097;-67
2021/03/13 03:09:12;;;;;;;18.42;5.10;;;6.30;99.90;;;;;;5088791;28;20044;-67
2021/03/13 03:11:41;;;;;;;13.27;3.75;;;6.30;99.90;;;;;;5088097;28;20043;-67
2021/03/13 03:14:10;;;;;;;15.18;3.80;;;6.20;99.90;;;;;;5087218;28;20047;-67
2021/03/13 03:16:40;;;;;;;16.20;4.50;;;6.20;99.90;;;;;;5083169;28;20067;-67
2021/03/13 03:19:07;;;;;;;20.02;5.05;;;6.20;99.90;;;;;;5089014;28;20123;-67
2021/03/13 03:21:35;;;;;;;16.13;4.22;;;6.20;99.90;;;;;;5089809;28;20122;-67
2021/03/13 03:24:01;;;;;;;18.27;5.55;;;6.20;99.90;;;;;;5088945;28;20039;-67
2021/03/13 03:26:27;;;;;;;17.15;5.15;;;6.20;99.90;;;;;;5090558;28;20560;-67
2021/03/13 03:28:53;;;;;;;12.45;3.90;;;6.10;99.90;;;;;;5070651;28;20032;-67
2021/03/13 03:31:18;;;;;;;9.68;2.97;;;6.10;99.90;;;;;;5087292;28;20050;-67
2021/03/13 03:33:44;;;;;;;12.57;3.50;;;6.10;99.90;;;;;;5086342;28;20040;-67
2021/03/13 03:36:11;;;;;;;11.60;3.25;;;6.10;99.90;;;;;;5085210;28;20063;-67
2021/03/13 03:38:41;;;;;;;9.05;3.17;;;6.10;99.90;;;;;;5089262;28;20036;-67
2021/03/13 03:41:07;;;;;;;9.25;2.90;;;6.10;99.90;;;;;;5085658;28;20470;-67
2021/03/13 03:43:44;;;;;;;9.52;2.38;;;6.10;99.90;;;;;;5089037;28;20102;-67
2021/03/13 03:46:11;;;;;;;5.88;2.63;;;6.00;99.90;;;;;;5087761;28;20391;-67
2021/03/13 03:48:38;;;;;;;9.40;2.90;;;6.00;99.90;;;;;;5086330;28;20036;-67
2021/03/13 03:51:14;;;;;;;7.85;2.42;;;6.00;99.90;;;;;;5088457;28;20517;-67
2021/03/13 03:53:43;;;;;;;5.97;1.85;;;6.00;99.90;;;;;;5086807;28;20085;-67
2021/03/13 03:56:09;;;;;;;7.80;2.03;;;6.00;99.90;;;;;;5087528;28;20162;-67
2021/03/13 03:58:39;;;;;;;5.90;1.90;;;6.00;99.90;;;;;;5085772;28;20036;-67
2021/03/13 04:01:07;;;;;;;4.45;1.65;;;5.90;99.90;;;;;;5087229;28;20039;-67
2021/03/13 04:03:35;;;;;;;6.05;1.58;;;5.90;99.90;;;;;;5087058;28;20036;-67
2021/03/13 04:06:01;;;;;;;4.65;1.02;;;5.90;99.90;;;;;;5088187;28;20043;-67
2021/03/13 04:08:29;;;;;;;6.97;2.10;;;5.90;99.90;;;;;;5085341;28;20581;-67
2021/03/13 04:10:56;;;;;;;3.30;1.02;;;5.90;99.90;;;;;;5086855;28;20032;-67
2021/03/13 04:13:23;;;;;;;3.72;1.33;;;5.80;99.90;;;;;;5086923;28;20075;-67
2021/03/13 04:15:50;;;;;;;6.75;1.35;;;5.90;99.90;;;;;;5089302;28;20036;-67
2021/03/13 04:18:17;;;;;;;4.10;1.58;;;5.80;99.90;;;;;;5093263;28;20386;-67
2021/03/13 04:20:46;;;;;;;3.17;1.02;;;5.80;99.90;;;;;;5091131;28;20074;-67
2021/03/13 04:23:13;;;;;;;6.85;1.15;;;5.80;99.90;;;;;;5092690;28;20379;-67
2021/03/13 04:25:41;;;;;;;6.93;1.88;;;5.80;99.90;;;;;;5088572;28;20424;-67
2021/03/13 04:28:07;;;;;;;4.82;1.60;;;5.80;99.90;;;;;;5090695;28;20063;-67
2021/03/13 04:30:33;;;;;;;5.65;1.52;;;5.80;99.90;;;;;;5093141;28;20047;-67
2021/03/13 04:33:00;;;;;;;4.75;2.10;;;5.80;99.90;;;;;;5092016;28;20483;-67
2021/03/13 04:35:27;;;;;;;4.57;2.30;;;5.80;99.90;;;;;;5090836;28;20118;-67
2021/03/13 04:37:55;;;;;;;5.18;2.00;;;5.80;99.90;;;;;;5090728;28;20042;-67
2021/03/13 04:40:21;;;;;;;4.25;2.15;;;5.90;99.90;;;;;;5092476;28;20033;-67
2021/03/13 04:42:48;;;;;;;6.88;2.13;;;5.80;99.90;;;;;;5093148;28;20103;-67
2021/03/13 04:45:15;;;;;;;6.93;2.05;;;5.80;99.90;;;;;;5086526;28;20129;-67
2021/03/13 04:47:46;;;;;;;4.13;1.98;;;5.80;99.90;;;;;;5092248;28;20040;-67
2021/03/13 04:50:15;;;;;;;5.30;1.80;;;5.80;99.90;;;;;;5070285;28;20380;-67
2021/03/13 04:52:41;;;;;;;6.30;2.15;;;5.90;99.90;;;;;;5092965;28;20036;-67
2021/03/13 04:55:08;;;;;;;7.00;2.22;;;5.90;99.90;;;;;;5091502;28;20532;-67
2021/03/13 04:57:34;;;;;;;5.90;2.33;;;5.90;99.90;;;;;;5089641;28;20040;-67
2021/03/13 05:00:00;;;;;;;5.53;1.98;;;5.90;99.90;;;;;;5088826;28;20040;-67
2021/03/13 05:02:25;;;;;;;6.10;2.33;;;5.90;99.90;;;;;;5092183;28;20465;-67
2021/03/13 05:04:51;;;;;;;6.03;3.00;;;6.00;99.90;;;;;;5089775;28;20066;-67
2021/03/13 05:07:17;;;;;;;5.07;1.75;;;6.00;99.90;;;;;;5093192;28;20052;-67
2021/03/13 05:09:42;;;;;;;5.03;1.73;;;6.00;99.90;;;;;;5091860;28;20067;-67
2021/03/13 05:12:09;;;;;;;4.60;1.73;;;6.00;99.90;;;;;;5088445;28;20380;-67
2021/03/13 05:14:34;;;;;;;3.67;1.92;;;6.00;99.90;;;;;;5090847;28;20036;-67
2021/03/13 05:17:03;;;;;;;3.70;2.17;;;6.00;99.90;;;;;;5092400;28;20039;-67
2021/03/13 05:19:29;;;;;;;3.13;1.65;;;6.00;99.90;;;;;;5092043;28;20032;-67
2021/03/13 05:21:55;;;;;;;5.15;1.90;;;6.10;99.90;;;;;;5091892;28;20036;-67
2021/03/13 05:24:20;;;;;;;4.53;2.40;;;6.10;99.90;;;;;;5091242;28;20036;-67
2021/03/13 05:26:46;;;;;;;6.57;2.25;;;6.10;99.90;;;;;;5086271;28;20483;-67
2021/03/13 05:29:12;;;;;;;3.45;1.60;;;6.10;99.90;;;;;;5071420;28;20040;-67
2021/03/13 05:31:37;;;;;;;4.43;1.50;;;6.20;99.90;;;;;;5091222;28;20044;-68
2021/03/13 05:34:03;;;;;;;7.05;1.92;;;6.20;99.90;;;;;;5090034;28;20047;-67
2021/03/13 05:36:29;;;;;;;5.15;1.90;;;6.30;99.90;;;;;;5089718;28;20398;-67
2021/03/13 05:38:55;;;;;;;6.50;2.10;;;6.30;99.90;;;;;;5091280;28;20116;-67
2021/03/13 05:41:20;;;;;;;4.88;1.98;;;6.30;99.90;;;;;;5090385;28;20107;-67
2021/03/13 05:43:46;;;;;;;5.32;1.90;;;6.30;99.90;;;;;;5090947;28;20031;-67
2021/03/13 05:46:13;;;;;;;4.13;1.42;;;6.30;99.90;;;;;;5088265;28;20047;-67
2021/03/13 05:48:43;;;;;;;3.60;1.70;;;6.30;99.90;;;;;;5091842;28;20069;-67
2021/03/13 05:51:12;;;;;;;4.15;1.88;;;6.30;99.90;;;;;;5091793;28;20047;-67
2021/03/13 05:53:42;;;;;;;3.78;1.42;;;6.30;99.90;;;;;;5089486;28;20035;-67
2021/03/13 05:56:10;;;;;;;4.43;1.55;;;6.40;99.90;;;;;;5087727;28;20038;-67
2021/03/13 05:58:39;;;;;;;5.10;1.77;;;6.40;99.90;;;;;;5087409;28;20032;-67
2021/03/13 06:01:08;;;;;;;3.15;1.10;;;6.50;99.90;;;;;;5082161;28;20059;-67
2021/03/13 06:03:34;;;;;;;7.47;1.45;;;6.50;99.90;;;;;;5077090;28;20059;-67
2021/03/13 06:06:02;;;;;;;3.13;1.00;;;6.50;99.90;;;;;;5077767;28;20746;-67
2021/03/13 06:08:29;;;;;;;6.22;1.52;;;6.50;99.90;;;;;;5081407;28;20115;-67
2021/03/13 06:10:56;;;;;;;6.75;1.33;;;6.50;99.90;;;;;;5077309;28;20033;-67
2021/03/13 06:13:24;;;;;;;5.40;1.33;;;6.60;99.90;;;;;;5079171;28;20036;-67
2021/03/13 06:15:55;;;;;;;3.38;1.10;;;6.70;99.90;;;;;;5076594;28;20052;-67
2021/03/13 06:18:21;;;;;;;5.85;1.27;;;6.70;99.90;;;;;;5079948;28;20039;-67
2021/03/13 06:20:46;;;;;;;3.97;1.70;;;6.70;99.90;;;;;;5078451;28;20039;-67
2021/03/13 06:23:13;;;;;;;9.30;1.77;;;6.70;99.90;;;;;;5080432;28;20043;-67
2021/03/13 06:25:39;;;;;;;6.50;1.58;;;6.70;99.90;;;;;;5078938;28;20497;-67
2021/03/13 06:28:08;;;;;;;3.78;0.75;;;6.80;99.90;;;;;;5079406;28;20089;-67
2021/03/13 06:30:46;;;;;;;3.47;0.98;;;6.80;99.90;;;;;;5080411;28;20040;-67
2021/03/13 06:33:25;;;;;;;3.63;1.00;;;6.80;99.90;;;;;;5078667;28;20442;-68
2021/03/13 06:35:56;;;;;;;9.85;1.20;;;6.80;99.90;;;;;;5076350;28;20040;-67
2021/03/13 06:38:25;;;;;;;6.68;1.42;;;6.70;99.90;;;;;;5078571;28;20493;-67
2021/03/13 06:40:54;;;;;;;5.40;1.25;;;6.70;99.90;;;;;;5077800;28;20062;-67
2021/03/13 06:43:23;;;;;;;6.10;1.15;;;6.70;99.90;;;;;;5077077;28;20102;-67
2021/03/13 06:46:01;;;;;;;4.70;1.45;;;6.70;99.90;;;;;;5078966;28;20047;-68
2021/03/13 06:48:34;;;;;;;4.72;1.00;;;6.70;99.90;;;;;;5075192;28;20040;-67
2021/03/13 06:51:24;;;;;;;5.00;1.38;;;6.70;99.90;;;;;;5087290;28;20038;-67
2021/03/13 06:53:59;;;;;;;4.63;1.42;;;6.70;99.90;;;;;;5088133;28;20100;-68
2021/03/13 06:56:27;;;;;;;8.27;1.92;;;6.80;99.90;;;;;;5086860;28;20044;-67
2021/03/13 06:58:53;;;;;;;2.72;0.20;;;6.60;99.90;;;;;;5089736;28;20036;-67
2021/03/13 07:01:30;;;;;;;3.03;0.20;;;6.00;99.90;;;;;;5081218;28;20848;-67
2021/03/13 07:03:57;;;;;;;3.60;0.43;;;5.80;99.90;;;;;;5075851;28;21411;-67
2021/03/13 07:06:24;;;;;;;5.70;0.30;;;5.70;99.90;;;;;;5081492;28;20552;-67
2021/03/13 07:08:52;;;;;;;5.63;0.50;;;5.70;99.90;;;;;;5083145;28;20506;-67
2021/03/13 07:11:22;;;;;;;2.72;0.32;;;5.70;99.90;;;;;;5086673;28;20078;-67
2021/03/13 07:13:55;;;;;;;3.25;0.35;;;5.60;99.90;;;;;;5084560;28;20439;-67
2021/03/13 07:16:24;;;;;;;3.90;0.40;;;5.70;99.90;;;;;;5085692;28;20136;-67
2021/03/13 07:18:51;;;;;;;4.18;0.28;;;5.70;99.90;;;;;;5083952;28;20097;-67
2021/03/13 07:21:19;;;;;;;3.45;0.50;;;5.80;99.90;;;;;;5082152;28;20043;-67
2021/03/13 07:24:03;;;;;;;3.65;0.55;;;5.80;99.90;;;;;;5084554;28;20822;-67
2021/03/13 07:26:43;;;;;;;4.97;0.57;;;5.90;99.90;;;;;;5084944;28;20036;-67
2021/03/13 07:29:11;;;;;;;3.22;0.47;;;5.90;99.90;;;;;;5087307;28;20042;-67
2021/03/13 07:31:40;;;;;;;6.63;0.65;;;6.00;99.90;;;;;;5083553;28;20387;-67
2021/03/13 07:34:10;;;;;;;4.75;0.43;;;6.20;99.90;;;;;;5083748;28;20043;-67
2021/03/13 07:36:42;;;;;;;7.15;0.60;;;6.40;99.90;;;;;;5086411;28;20032;-66
2021/03/13 07:39:17;;;;;;;7.22;0.50;;;6.40;99.90;;;;;;5081624;28;20425;-66
2021/03/13 07:42:10;;;;;;;6.83;0.90;;;6.60;99.70;;;;;;5084834;28;20111;-67
2021/03/13 07:44:37;;;;;;;4.68;1.15;;;6.70;99.10;;;;;;5080886;28;20048;-67
2021/03/13 07:47:03;;;;;;;7.07;0.75;;;6.80;99.00;;;;;;5085623;28;20126;-67
2021/03/13 07:49:36;;;;;;;8.00;1.30;;;6.90;99.30;;;;;;5086047;28;20036;-67
2021/03/13 07:52:04;;;;;;;16.60;1.25;;;7.10;98.90;;;;;;5085292;28;20097;-67
2021/03/13 07:54:32;;;;;;;12.40;3.88;;;7.20;97.80;;;;;;5067819;28;20509;-67
2021/03/13 07:57:04;;;;;;;7.85;1.38;;;7.30;98.30;;;;;;5085377;28;20449;-67
2021/03/13 07:59:42;;;;;;;17.23;1.98;;;7.40;97.50;;;;;;5065531;28;20032;-67
2021/03/13 08:02:08;;;;;;;14.65;2.40;;;7.30;96.60;;;;;;5085476;28;20043;-67
2021/03/13 08:04:42;;;;;;;9.20;1.70;;;7.20;97.30;;;;;;5076431;28;20440;-67
2021/03/13 08:07:09;;;;;;;13.65;2.28;;;7.10;97.50;;;;;;5084065;28;20059;-67
2021/03/13 08:09:44;;;;;;;12.82;2.15;;;7.00;97.70;;;;;;5087533;28;20031;-67
2021/03/13 08:12:10;;;;;;;13.80;1.60;;;7.00;98.00;;;;;;5067286;28;20467;-67
2021/03/13 08:14:37;;;;;;;16.13;2.80;;;7.10;98.40;;;;;;5085906;28;20067;-67
2021/03/13 08:17:11;;;;;;;14.05;1.80;;;7.10;98.00;;;;;;5081759;28;20028;-67
2021/03/13 08:19:39;;;;;;;16.15;2.25;;;7.30;98.00;;;;;;5069591;28;20035;-67
2021/03/13 08:22:17;;;;;;;11.80;2.00;;;7.40;97.80;;;;;;5067606;28;20036;-67
2021/03/13 08:24:46;;;;;;;16.58;2.08;;;7.50;96.80;;;;;;5087336;28;20049;-67
2021/03/13 08:27:14;;;;;;;16.17;1.67;;;7.50;96.30;;;;;;5087161;28;20115;-67
2021/03/13 08:29:58;;;;;;;10.02;1.38;;;7.50;95.60;;;;;;5085509;28;20112;-67
2021/03/13 08:32:58;;;;;;;12.63;2.50;;;7.40;94.80;;;;;;5084086;28;20089;-67
2021/03/13 08:35:43;;;;;;;14.02;2.38;;;7.30;95.80;;;;;;5081886;28;20498;-66
2021/03/13 08:38:10;;;;;;;10.07;1.33;;;7.30;96.70;;;;;;5080512;28;20047;-67
2021/03/13 08:40:49;;;;;;;11.77;1.50;;;7.20;96.30;;;;;;5081789;28;20169;-67
2021/03/13 08:43:35;;;;;;;7.65;1.30;;;7.00;96.60;;;;;;5087998;28;20101;-67
2021/03/13 08:46:03;;;;;;;7.75;1.05;;;6.80;97.40;;;;;;5084160;28;20123;-67
2021/03/13 08:48:57;;;;;;;7.68;1.20;;;6.60;97.50;;;;;;5083798;28;20032;-67
2021/03/13 08:51:23;;;;;;;9.30;1.77;;;6.50;98.00;;;;;;5084029;28;20529;-67
2021/03/13 08:53:49;;;;;;;7.22;1.35;;;6.50;98.60;;;;;;5085863;28;20056;-67
2021/03/13 08:56:34;;;;;;;10.52;1.02;;;6.50;98.80;;;;;;5088565;28;20074;-67
2021/03/13 08:59:09;;;;;;;14.20;1.40;;;6.40;98.90;;;;;;5085505;28;20043;-67
2021/03/13 09:01:35;;;;;;;15.55;3.15;;;6.40;98.90;;;;;;5081818;28;20394;-67
2021/03/13 09:04:01;;;;;;;10.43;1.33;;;6.40;99.40;;;;;;5070003;28;20040;-67
2021/03/13 09:06:27;;;;;;;7.70;1.17;;;6.30;99.50;;;;;;5091312;28;20513;-67
2021/03/13 09:09:16;;;;;;;7.43;0.82;;;6.10;99.50;;;;;;5086532;28;20054;-67
2021/03/13 09:11:44;;;;;;;14.18;1.10;;;6.00;99.70;;;;;;5088112;28;20040;-67
2021/03/13 09:14:12;;;;;;;11.23;1.58;;;5.90;99.90;;;;;;5087200;28;20044;-67
2021/03/13 09:16:40;;;;;;;51.50;4.10;;;5.80;99.90;;;;;;5091435;28;20410;-67
2021/03/13 09:19:14;;;;;;;18.40;2.30;;;5.80;99.90;;;;;;5088195;28;20036;-67
2021/03/13 09:21:48;;;;;;;15.82;1.85;;;5.80;99.90;;;;;;5091937;28;20036;-67
2021/03/13 09:24:20;;;;;;;12.77;2.45;;;6.00;99.90;;;;;;5091306;28;20033;-67
2021/03/13 09:27:05;;;;;;;17.73;1.90;;;6.30;99.90;;;;;;5091992;28;20038;-67
2021/03/13 09:29:32;;;;;;;9.70;1.63;;;6.50;99.90;;;;;;5071921;28;20028;-67
2021/03/13 09:31:58;;;;;;;10.88;1.80;;;6.50;99.20;;;;;;5091045;28;20059;-67
2021/03/13 09:34:26;;;;;;;15.93;2.50;;;6.50;99.20;;;;;;5090044;28;20071;-67
2021/03/13 09:36:51;;;;;;;23.58;2.88;;;6.60;99.20;;;;;;5070770;28;20498;-68
2021/03/13 09:39:27;;;;;;;26.67;2.80;;;6.70;99.50;;;;;;5087826;28;20159;-66
2021/03/13 09:42:23;;;;;;;24.13;2.80;;;6.80;98.50;;;;;;5091488;28;20040;-66
2021/03/13 09:44:50;;;;;;;15.63;2.53;;;7.10;97.40;;;;;;5087566;28;20072;-66
2021/03/13 09:47:25;;;;;;;17.80;2.90;;;7.40;96.40;;;;;;5091234;28;20138;-65
2021/03/13 09:49:53;;;;;;;22.10;3.40;;;7.80;96.10;;;;;;5070070;28;20096;-66
2021/03/13 09:52:31;;;;;;;22.52;3.45;;;8.20;94.80;;;;;;5089368;28;20528;-66
2021/03/13 09:55:11;;;;;;;18.35;3.60;;;8.30;95.50;;;;;;5089281;28;20070;-66
2021/03/13 09:57:40;;;;;;;16.17;2.10;;;8.30;93.50;;;;;;5087086;28;20036;-66
2021/03/13 10:00:09;;;;;;;19.25;4.43;;;8.20;93.80;;;;;;5091800;28;20055;-66
2021/03/13 10:02:36;;;;;;;14.48;2.42;;;8.20;93.40;;;;;;5090596;28;20085;-66
2021/03/13 10:05:03;;;;;;;13.98;2.70;;;8.20;93.80;;;;;;5091222;28;20038;-66
2021/03/13 10:07:29;;;;;;;20.30;2.47;;;8.20;94.50;;;;;;5072842;28;20067;-66
2021/03/13 10:10:02;;;;;;;21.35;3.00;;;8.20;94.50;;;;;;5091891;28;20429;-66
2021/03/13 10:12:46;;;;;;;15.38;2.97;;;8.00;94.00;;;;;;5090753;28;20035;-65
2021/03/13 10:15:27;;;;;;;14.73;2.22;;;8.10;94.20;;;;;;5088497;28;20044;-65
2021/03/13 10:18:04;;;;;;;19.38;2.95;;;8.30;95.00;;;;;;5089644;28;20040;-65
2021/03/13 10:20:34;;;;;;;13.98;3.13;;;8.50;95.40;;;;;;5088571;28;20406;-65
2021/03/13 10:23:13;;;;;;;12.82;2.90;;;8.70;93.30;;;;;;5083829;28;20555;-65
2021/03/13 10:25:54;;;;;;;17.10;2.30;;;8.90;94.20;;;;;;5087181;28;20040;-65
2021/03/13 10:28:25;;;;;;;16.35;2.30;;;9.20;94.40;;;;;;5088599;28;20040;-65
2021/03/13 10:30:51;;;;;;;13.40;2.00;;;9.30;92.20;;;;;;5089539;28;20383;-65
2021/03/13 10:33:30;;;;;;;15.98;2.38;;;9.40;92.70;;;;;;5089102;28;20025;-65
2021/03/13 10:35:56;;;;;;;19.10;2.70;;;9.60;93.10;;;;;;5088523;28;20047;-65
2021/03/13 10:38:22;;;;;;;12.05;2.17;;;9.80;93.00;;;;;;5088499;28;20036;-65
2021/03/13 10:40:52;;;;;;;9.85;1.95;;;9.60;91.00;;;;;;5088780;28;20028;-65
2021/03/13 10:43:21;;;;;;;12.35;1.80;;;9.40;90.90;;;;;;5088729;28;20028;-65
2021/03/13 10:45:55;;;;;;;16.23;2.97;;;9.20;90.20;;;;;;5090271;28;20049;-65
2021/03/13 10:48:21;;;;;;;14.65;2.40;;;9.00;91.40;;;;;;5090338;28;20036;-65
2021/03/13 10:50:47;;;;;;;12.70;2.20;;;8.80;92.30;;;;;;5088864;28;20046;-65
2021/03/13 10:53:31;;;;;;;25.85;3.33;;;8.60;91.10;;;;;;5088400;28;20553;-65
2021/03/13 10:56:02;;;;;;;14.07;2.05;;;8.30;93.80;;;;;;5085966;28;20383;-65
2021/03/13 10:58:32;;;;;;;19.95;1.80;;;7.90;95.40;;;;;;5063427;28;20048;-65
2021/03/13 11:01:00;;;;;;;10.23;1.33;;;7.40;96.30;;;;;;5088073;28;20086;-65
2021/03/13 11:03:26;;;;;;;7.80;1.35;;;7.00;96.50;;;;;;5089045;28;20406;-65
2021/03/13 11:05:53;;;;;;;12.35;1.42;;;6.80;97.10;;;;;;5090174;28;20048;-65
2021/03/13 11:08:23;;;;;;;5.57;1.77;;;6.60;96.90;;;;;;5087166;28;20110;-65
2021/03/13 11:10:50;;;;;;;7.88;1.30;;;6.50;97.50;;;;;;5089435;28;20731;-65
2021/03/13 11:13:17;;;;;;;15.63;1.60;;;6.60;98.50;;;;;;5088261;28;20047;-65
2021/03/13 11:15:43;;;;;;;9.60;1.00;;;6.70;98.00;;;;;;5087005;28;20048;-65
2021/03/13 11:18:10;;;;;;;15.88;2.53;;;6.80;97.80;;;;;;5089421;28;20043;-65
2021/03/13 11:20:37;;;;;;;13.52;2.33;;;6.90;98.00;;;;;;5087998;28;20036;-65
2021/03/13 11:23:04;;;;;;;14.23;1.95;;;7.00;97.00;;;;;;5086586;28;20085;-65
2021/03/13 11:25:29;;;;;;;21.73;2.90;;;7.10;97.50;;;;;;5085818;28;20036;-65
2021/03/13 11:27:55;;;;;;;15.40;2.90;;;7.30;97.50;;;;;;5089591;28;20476;-65
2021/03/13 11:30:22;;;;;;;20.27;3.00;;;7.50;97.70;;;;;;5089957;28;20040;-65
2021/03/13 11:32:48;;;;;;;16.70;3.08;;;7.70;96.20;;;;;;5087421;28;20040;-65
2021/03/13 11:35:14;;;;;;;27.48;3.38;;;7.80;95.80;;;;;;5103263;28;20050;-65
2021/03/13 11:37:41;;;;;;;14.48;2.80;;;7.90;96.20;;;;;;5087782;28;20043;-65
2021/03/13 11:40:10;;;;;;;16.35;2.45;;;8.30;95.70;;;;;;5089121;28;20036;-65
2021/03/13 11:42:37;;;;;;;18.52;2.42;;;8.60;96.20;;;;;;5089355;28;20542;-65
2021/03/13 11:45:08;;;;;;;18.42;3.03;;;8.90;94.70;;;;;;5088258;28;20028;-65
2021/03/13 11:47:34;;;;;;;25.65;3.15;;;9.00;94.00;;;;;;5069306;28;20059;-65
2021/03/13 11:50:00;;;;;;;20.50;3.13;;;8.90;93.10;;;;;;5089481;28;20156;-65
2021/03/13 11:52:26;;;;;;;15.88;2.53;;;8.70;92.40;;;;;;5088592;28;20504;-65
2021/03/13 11:54:52;;;;;;;19.85;2.80;;;8.50;93.20;;;;;;5085639;28;20527;-65
2021/03/13 11:57:20;;;;;;;14.25;3.28;;;8.20;94.00;;;;;;5084471;28;20043;-65
2021/03/13 11:59:50;;;;;;;14.57;1.92;;;8.10;93.40;;;;;;5088644;28;20044;-65
2021/03/13 12:02:16;;;;;;;12.65;1.80;;;7.90;93.10;;;;;;5087141;28;20040;-65
2021/03/13 12:04:43;;;;;;;8.20;1.27;;;7.70;94.10;;;;;;5059632;28;20040;-65
2021/03/13 12:07:10;;;;;;;9.85;1.90;;;7.50;94.20;;;;;;5066977;28;20075;-65
2021/03/13 12:09:37;;;;;;;11.80;1.45;;;7.40;94.50;;;;;;5086583;28;20032;-65
2021/03/13 12:12:06;;;;;;;7.07;0.90;;;7.30;94.90;;;;;;5085962;28;20394;-65
2021/03/13 12:14:35;;;;;;;7.50;0.90;;;7.20;94.80;;;;;;5076435;28;20399;-65
2021/03/13 12:17:02;;;;;;;11.23;2.13;;;7.10;95.10;;;;;;5081303;28;20486;-65
2021/03/13 12:19:28;;;;;;;9.63;1.55;;;7.00;95.70;;;;;;5085899;28;20039;-65
2021/03/13 12:21:54;;;;;;;13.18;2.53;;;7.00;96.00;;;;;;5086126;28;20040;-65
2021/03/13 12:24:20;;;;;;;11.45;1.60;;;7.10;95.90;;;;;;5089466;28;20032;-65
2021/03/13 12:26:46;;;;;;;8.10;1.08;;;7.10;96.20;;;;;;5084970;28;20093;-65
2021/03/13 12:29:12;;;;;;;12.52;2.05;;;7.00;96.00;;;;;;5084619;28;20432;-65
2021/03/13 12:31:38;;;;;;;13.30;1.10;;;6.90;96.30;;;;;;5087347;28;20064;-65
2021/03/13 12:34:04;;;;;;;12.00;0.98;;;6.70;96.90;;;;;;5082006;28;20063;-65
2021/03/13 12:36:30;;;;;;;6.75;1.90;;;6.60;97.70;;;;;;5077444;28;20684;-65
2021/03/13 12:38:56;;;;;;;7.20;1.02;;;6.50;98.20;;;;;;5086212;28;20036;-65
2021/03/13 12:41:22;;;;;;;7.70;1.05;;;6.40;98.80;;;;;;5090720;28;20036;-65
2021/03/13 12:43:49;;;;;;;2.83;0.50;;;6.30;99.10;;;;;;5087244;28;20046;-65
2021/03/13 12:46:15;;;;;;;9.35;0.80;;;6.10;99.60;;;;;;5088515;28;20443;-65
2021/03/13 12:48:43;;;;;;;3.83;0.38;;;6.10;99.90;;;;;;5091272;28;20119;-65
2021/03/13 12:51:09;;;;;;;3.85;0.73;;;6.10;99.50;;;;;;5084404;28;20044;-65
2021/03/13 12:53:34;;;;;;;9.50;2.15;;;6.10;99.60;;;;;;5084501;28;20044;-65
2021/03/13 12:56:00;;;;;;;9.63;1.35;;;6.30;99.90;;;;;;5089055;28;20043;-65
2021/03/13 12:58:26;;;;;;;13.95;2.70;;;6.60;99.90;;;;;;5089386;28;20101;-65
2021/03/13 13:00:52;;;;;;;14.73;2.30;;;6.90;99.60;;;;;;5091568;28;20169;-65